»·PEaware :: WAT169 KPSP-KLAS

WAT169 :: KPSP-KLAS

FLIGHT INFORMATION

Flight Status: Arrived
Operator:
Walker Air Transport
More flights by this operator :: More flights under this callsign
Pilot: Marty P. (27464)
Aircraft: BOEING 737-800
(B738)
More flights by this aircraft type
Origin: KPSP Palm Springs Intl
United States
Destination: KLAS McCarran Intl
United States
More flights between these airports :: More routes between these airports
Route: CATH1 PSP V370 TNP KEPEC6
File this flight plan on PilotEdge
Remarks:
Altitude:
(Current/Filed)
23,000ft
Speed:
(Current/Filed)
480kts
Departed: 03-Jan-21 10:38 AM
Arrived: 03-Jan-21 11:21 AM
Distance/Time
Traveled:
151nm/0:43
Distance/Time
To Go:
Arrived

Flight Plot

Page will automatically refresh every two minutes.

Flight plan parsing failed; only flown route is shown


Map Options




Map Legend


Flown Route
Filed Route
Departure Airport
Arrival Airport
Navaid (VOR, NDB)
Fix

Horizontal Profiles

Position Reports

Time Latitude Longitude Heading Altitude Ground
Speed
03-Jan-21 10:08 33.822770 -116.505863 291 417ft 0kts
03-Jan-21 10:09 33.822770 -116.505863 291 417ft 0kts
03-Jan-21 10:10 33.822770 -116.505863 291 417ft 0kts
03-Jan-21 10:11 33.822770 -116.505863 291 417ft 0kts
03-Jan-21 10:12 33.822770 -116.505863 291 417ft 0kts
03-Jan-21 10:13 33.822770 -116.505863 291 417ft 0kts
03-Jan-21 10:14 33.822770 -116.505863 291 417ft 0kts
03-Jan-21 10:15 33.822770 -116.505863 291 417ft 0kts
03-Jan-21 10:16 33.822770 -116.505863 291 417ft 0kts
03-Jan-21 10:17 33.822770 -116.505863 291 417ft 0kts
03-Jan-21 10:18 33.822770 -116.505863 291 417ft 0kts
03-Jan-21 10:19 33.822770 -116.505863 291 417ft 0kts
03-Jan-21 10:20 33.822770 -116.505863 291 417ft 0kts
03-Jan-21 10:21 33.822770 -116.505863 291 417ft 0kts
03-Jan-21 10:22 33.822770 -116.505863 291 417ft 0kts
03-Jan-21 10:23 33.822769 -116.505862 291 417ft 0kts
03-Jan-21 10:24 33.822456 -116.505350 5 415ft 2kts
03-Jan-21 10:25 33.821952 -116.505687 1 415ft 2kts
03-Jan-21 10:26 33.821796 -116.505678 359 414ft 0kts
03-Jan-21 10:27 33.821796 -116.505678 359 414ft 0kts
03-Jan-21 10:28 33.821796 -116.505678 359 414ft 0kts
03-Jan-21 10:29 33.821875 -116.505672 6 415ft 2kts
03-Jan-21 10:31 33.822523 -116.503395 145 414ft 14kts
03-Jan-21 10:32 33.818837 -116.500061 143 404ft 0kts
03-Jan-21 10:33 33.818517 -116.499185 91 401ft 9kts
03-Jan-21 10:34 33.818516 -116.499071 91 401ft 0kts
03-Jan-21 10:35 33.818516 -116.499071 91 401ft 0kts
03-Jan-21 10:36 33.818516 -116.499071 91 401ft 0kts
03-Jan-21 10:37 33.818959 -116.498194 347 401ft 11kts
03-Jan-21 10:38 33.844291 -116.521418 322 1368ft 182kts
03-Jan-21 10:39 33.890421 -116.566403 321 3927ft 244kts
03-Jan-21 10:40 33.949788 -116.586122 45 5999ft 252kts
03-Jan-21 10:41 33.942281 -116.508107 89 6032ft 261kts
03-Jan-21 10:42 33.959698 -116.422198 72 10115ft 275kts
03-Jan-21 10:43 33.984203 -116.317969 70 11798ft 369kts
03-Jan-21 10:44 34.012727 -116.195984 70 15140ft 387kts
03-Jan-21 10:45 34.042404 -116.068973 70 18088ft 403kts
03-Jan-21 10:45 34.068193 -115.958561 70 20249ft 416kts
03-Jan-21 10:47 34.111130 -115.801933 54 22876ft 426kts
03-Jan-21 10:48 34.191164 -115.687730 40 23304ft 473kts
03-Jan-21 10:48 34.267647 -115.597513 38 23315ft 458kts
03-Jan-21 10:49 34.370740 -115.511498 17 23312ft 446kts
03-Jan-21 10:50 34.486719 -115.459726 14 23311ft 444kts
03-Jan-21 10:51 34.602768 -115.409098 14 23311ft 443kts
03-Jan-21 10:52 34.718314 -115.358856 12 23302ft 439kts
03-Jan-21 10:53 34.836809 -115.352855 345 23300ft 423kts
03-Jan-21 10:54 34.948705 -115.394016 339 23291ft 411kts
03-Jan-21 10:55 35.053565 -115.434845 339 22348ft 405kts
03-Jan-21 10:57 35.174721 -115.482121 339 20596ft 390kts
03-Jan-21 10:57 35.256747 -115.514166 339 19342ft 348kts
03-Jan-21 10:58 35.345037 -115.548961 339 17829ft 324kts
03-Jan-21 10:59 35.430292 -115.582563 339 16334ft 322kts
03-Jan-21 11:00 35.515131 -115.616021 340 14825ft 318kts
03-Jan-21 11:01 35.598445 -115.648958 340 13324ft 314kts
03-Jan-21 11:02 35.679182 -115.659613 15 13010ft 284kts
03-Jan-21 11:03 35.743476 -115.598696 29 13005ft 293kts
03-Jan-21 11:04 35.818713 -115.571679 359 13011ft 283kts
03-Jan-21 11:05 35.897441 -115.567702 359 12998ft 283kts
03-Jan-21 11:06 35.972078 -115.540417 40 12980ft 298kts
03-Jan-21 11:07 36.009022 -115.446096 65 12088ft 307kts
03-Jan-21 11:08 36.028712 -115.350203 88 10860ft 276kts
03-Jan-21 11:09 36.022469 -115.255597 94 9551ft 270kts
03-Jan-21 11:10 36.016046 -115.165707 94 8858ft 265kts
03-Jan-21 11:11 36.010181 -115.079006 94 7871ft 235kts
03-Jan-21 11:12 36.005417 -114.998557 94 7994ft 234kts
03-Jan-21 11:13 36.000610 -114.917975 94 7999ft 235kts
03-Jan-21 11:14 36.017361 -114.847665 11 5937ft 236kts
03-Jan-21 11:15 36.063196 -114.893560 297 4984ft 224kts
03-Jan-21 11:16 36.073823 -114.966696 268 4598ft 207kts
03-Jan-21 11:17 36.073598 -115.027125 270 3643ft 157kts
03-Jan-21 11:18 36.073644 -115.081809 270 2791ft 160kts
03-Jan-21 11:19 36.073808 -115.136501 266 2077ft 134kts
03-Jan-21 11:20 36.075430 -115.146513 354 2106ft 10kts
03-Jan-21 11:21 36.077583 -115.146708 332 2103ft 5kts
03-Jan-21 11:22 36.080012 -115.147880 9 2102ft 2kts
03-Jan-21 11:23 36.080323 -115.147284 66 2099ft 0kts
03-Jan-21 11:24 36.080323 -115.147284 66 2099ft 0kts
03-Jan-21 11:25 36.080323 -115.147284 66 2099ft 0kts
03-Jan-21 11:26 36.080323 -115.147284 66 2099ft 0kts
03-Jan-21 11:27 36.080323 -115.147284 66 2099ft 0kts
03-Jan-21 11:28 36.080323 -115.147284 66 2099ft 0kts
03-Jan-21 11:29 36.080323 -115.147284 66 2099ft 0kts
03-Jan-21 11:30 36.080323 -115.147284 66 2099ft 0kts
03-Jan-21 11:31 36.080323 -115.147284 66 2099ft 0kts
03-Jan-21 11:32 36.080323 -115.147284 66 2099ft 0kts
03-Jan-21 11:33 36.080323 -115.147284 66 2099ft 0kts

Navigation Log

Ident Type
Flight plan parsing failed, navigation log unavailable